Time,TemperatureF,DewpointF,PressureIn,WindDirection,WindDirectionDegrees,WindSpeedMPH,WindSpeedGustMPH,Humidity,HourlyPrecipIn,Conditions,Clouds,dailyrainin,SoftwareType,DateUTC
2013-03-22 00:00:00,30.0,-8.3,29.62,WSW,248,1.1,2.5,18,0.00,,,0.00,VWS V14.01,2013-03-22 04:00:00,
2013-03-22 00:01:00,30.0,-8.3,29.62,WSW,248,0.0,1.1,18,0.00,,,0.00,VWS V14.01,2013-03-22 04:01:00,
2013-03-22 00:05:00,29.8,-8.5,29.62,WSW,248,2.0,4.3,18,0.00,,,0.00,VWS V14.01,2013-03-22 04:05:00,
2013-03-22 00:06:00,29.8,-8.5,29.62,WSW,248,2.7,2.7,18,0.00,,,0.00,VWS V14.01,2013-03-22 04:06:00,
2013-03-22 00:10:00,29.8,-8.5,29.62,WSW,248,2.2,2.2,18,0.00,,,0.00,VWS V14.01,2013-03-22 04:10:00,
2013-03-22 00:11:00,29.7,-8.6,29.62,WSW,248,3.6,3.6,18,0.00,,,0.00,VWS V14.01,2013-03-22 04:11:00,
2013-03-22 00:15:00,29.7,-8.6,29.62,WSW,248,1.3,2.9,18,0.00,,,0.00,VWS V14.01,2013-03-22 04:15:00,
2013-03-22 00:16:00,29.7,-8.6,29.62,WSW,248,1.1,2.9,18,0.00,,,0.00,VWS V14.01,2013-03-22 04:16:00,
2013-03-22 00:20:00,29.5,-8.8,29.62,WSW,248,0.0,2.0,18,0.00,,,0.00,VWS V14.01,2013-03-22 04:20:00,
2013-03-22 00:21:00,29.5,-8.8,29.62,WSW,248,2.0,2.7,18,0.00,,,0.00,VWS V14.01,2013-03-22 04:21:00,
2013-03-22 00:25:00,29.5,-8.8,29.62,WSW,248,2.5,3.4,18,0.00,,,0.00,VWS V14.01,2013-03-22 04:25:00,
2013-03-22 00:26:00,29.5,-8.8,29.62,WSW,248,0.0,3.4,18,0.00,,,0.00,VWS V14.01,2013-03-22 04:26:00,
2013-03-22 00:30:00,29.5,-8.8,29.62,WSW,248,0.0,2.5,18,0.00,,,0.00,VWS V14.01,2013-03-22 04:30:00,
2013-03-22 00:31:00,29.5,-8.8,29.62,WSW,248,1.1,2.0,18,0.00,,,0.00,VWS V14.01,2013-03-22 04:31:00,
2013-03-22 00:32:00,29.5,-8.8,29.62,WSW,248,2.5,2.5,18,0.00,,,0.00,VWS V14.01,2013-03-22 04:32:00,
2013-03-22 00:35:00,29.3,-8.9,29.62,WSW,248,0.0,0.0,18,0.00,,,0.00,VWS V14.01,2013-03-22 04:35:00,
2013-03-22 00:37:00,29.3,-8.9,29.62,WSW,248,2.5,2.5,18,0.00,,,0.00,VWS V14.01,2013-03-22 04:37:00,
2013-03-22 00:40:00,29.3,-8.9,29.62,WSW,248,1.6,1.6,18,0.00,,,0.00,VWS V14.01,2013-03-22 04:40:00,
2013-03-22 00:42:00,29.1,-9.1,29.62,WSW,248,0.0,3.6,18,0.00,,,0.00,VWS V14.01,2013-03-22 04:42:00,
2013-03-22 00:45:00,29.1,-9.1,29.62,WSW,248,1.6,2.7,18,0.00,,,0.00,VWS V14.01,2013-03-22 04:45:00,
2013-03-22 00:47:00,29.1,-9.1,29.62,WSW,248,0.0,0.0,18,0.00,,,0.00,VWS V14.01,2013-03-22 04:47:00,
2013-03-22 00:50:00,28.9,-9.2,29.62,WSW,248,0.0,0.0,18,0.00,,,0.00,VWS V14.01,2013-03-22 04:50:00,
2013-03-22 00:52:00,28.9,-9.2,29.62,WSW,248,2.0,2.5,18,0.00,,,0.00,VWS V14.01,2013-03-22 04:52:00,
2013-03-22 00:55:00,28.8,-9.4,29.62,WSW,248,0.9,1.6,18,0.00,,,0.00,VWS V14.01,2013-03-22 04:55:00,
2013-03-22 00:57:00,28.8,-9.4,29.62,WSW,248,0.0,0.0,18,0.00,,,0.00,VWS V14.01,2013-03-22 04:57:00,
2013-03-22 01:01:00,28.8,-9.4,29.62,WSW,248,0.0,1.3,18,0.00,,,0.00,VWS V14.01,2013-03-22 05:01:00,
2013-03-22 01:02:00,28.8,-9.4,29.62,WSW,248,0.0,0.0,18,0.00,,,0.00,VWS V14.01,2013-03-22 05:02:00,
2013-03-22 01:06:00,28.8,-9.4,29.62,WSW,248,2.7,2.7,18,0.00,,,0.00,VWS V14.01,2013-03-22 05:06:00,
2013-03-22 01:07:00,28.8,-9.4,29.62,WSW,248,1.1,1.3,18,0.00,,,0.00,VWS V14.01,2013-03-22 05:07:00,
2013-03-22 01:11:00,28.8,-9.4,29.62,WSW,248,2.0,2.0,18,0.00,,,0.00,VWS V14.01,2013-03-22 05:11:00,
2013-03-22 01:12:00,28.8,-9.4,29.62,WSW,248,1.3,1.3,18,0.00,,,0.00,VWS V14.01,2013-03-22 05:12:00,
2013-03-22 01:13:00,28.8,-9.4,29.62,WSW,248,2.7,2.7,18,0.00,,,0.00,VWS V14.01,2013-03-22 05:13:00,
2013-03-22 01:16:00,28.6,-9.5,29.62,WSW,248,2.0,2.0,18,0.00,,,0.00,VWS V14.01,2013-03-22 05:16:00,
2013-03-22 01:17:00,28.6,-9.5,29.62,WSW,248,2.5,2.9,18,0.00,,,0.00,VWS V14.01,2013-03-22 05:17:00,
2013-03-22 01:18:00,28.6,-9.5,29.62,WSW,248,2.7,2.7,18,0.00,,,0.00,VWS V14.01,2013-03-22 05:18:00,
2013-03-22 01:21:00,28.6,-9.5,29.62,WSW,248,1.6,2.7,18,0.00,,,0.00,VWS V14.01,2013-03-22 05:21:00,
2013-03-22 01:22:00,28.6,-9.5,29.62,WSW,248,1.3,3.1,18,0.00,,,0.00,VWS V14.01,2013-03-22 05:22:00,
2013-03-22 01:23:00,28.6,-9.5,29.62,WSW,248,1.6,1.6,18,0.00,,,0.00,VWS V14.01,2013-03-22 05:23:00,
2013-03-22 01:26:00,28.6,-9.5,29.62,WSW,248,1.1,3.1,18,0.00,,,0.00,VWS V14.01,2013-03-22 05:26:00,
2013-03-22 01:27:00,28.6,-9.5,29.62,WSW,248,2.7,2.7,18,0.00,,,0.00,VWS V14.01,2013-03-22 05:27:00,
2013-03-22 01:28:00,28.6,-9.5,29.62,WSW,248,1.1,2.7,18,0.00,,,0.00,VWS V14.01,2013-03-22 05:28:00,
2013-03-22 01:29:00,28.4,-9.7,29.62,WSW,248,1.6,2.0,18,0.00,,,0.00,VWS V14.01,2013-03-22 05:29:00,
2013-03-22 01:31:00,28.4,-9.7,29.62,WSW,248,2.5,3.1,18,0.00,,,0.00,VWS V14.01,2013-03-22 05:31:00,
2013-03-22 01:32:00,28.4,-9.7,29.62,WSW,248,3.1,3.1,18,0.00,,,0.00,VWS V14.01,2013-03-22 05:32:00,
2013-03-22 01:33:00,28.4,-9.7,29.62,WSW,248,2.2,3.1,18,0.00,,,0.00,VWS V14.01,2013-03-22 05:33:00,
2013-03-22 01:34:00,28.4,-9.7,29.62,WSW,248,1.1,1.1,18,0.00,,,0.00,VWS V14.01,2013-03-22 05:34:00,
2013-03-22 01:37:00,28.4,-9.7,29.62,WSW,248,1.1,2.5,18,0.00,,,0.00,VWS V14.01,2013-03-22 05:37:00,
2013-03-22 01:38:00,28.4,-9.7,29.62,WSW,248,0.0,1.3,18,0.00,,,0.00,VWS V14.01,2013-03-22 05:38:00,
2013-03-22 01:39:00,28.4,-9.7,29.62,WSW,248,1.6,1.6,18,0.00,,,0.00,VWS V14.01,2013-03-22 05:39:00,
2013-03-22 01:42:00,28.4,-9.7,29.62,WSW,248,0.0,1.6,18,0.00,,,0.00,VWS V14.01,2013-03-22 05:42:00,
2013-03-22 01:43:00,28.4,-9.7,29.62,WSW,248,2.9,2.9,18,0.00,,,0.00,VWS V14.01,2013-03-22 05:43:00,
2013-03-22 01:44:00,28.4,-9.7,29.62,WSW,248,0.9,0.9,18,0.00,,,0.00,VWS V14.01,2013-03-22 05:44:00,
2013-03-22 01:47:00,28.4,-9.7,29.62,WSW,248,2.5,2.7,18,0.00,,,0.00,VWS V14.01,2013-03-22 05:47:00,
2013-03-22 01:48:00,28.4,-9.7,29.62,WSW,248,0.0,0.9,18,0.00,,,0.00,VWS V14.01,2013-03-22 05:48:00,
2013-03-22 01:49:00,28.4,-9.7,29.62,WSW,248,0.9,0.9,18,0.00,,,0.00,VWS V14.01,2013-03-22 05:49:00,
2013-03-22 01:52:00,28.4,-9.7,29.62,WSW,248,1.6,3.1,18,0.00,,,0.00,VWS V14.01,2013-03-22 05:52:00,
2013-03-22 01:53:00,28.4,-9.7,29.62,WSW,248,3.4,3.4,18,0.00,,,0.00,VWS V14.01,2013-03-22 05:53:00,
2013-03-22 01:55:00,28.4,-9.7,29.62,WSW,248,1.1,1.1,18,0.00,,,0.00,VWS V14.01,2013-03-22 05:55:00,
2013-03-22 01:57:00,28.4,-9.7,29.62,WSW,248,2.5,2.5,18,0.00,,,0.00,VWS V14.01,2013-03-22 05:57:00,
2013-03-22 01:58:00,28.4,-9.7,29.62,WSW,248,2.5,2.5,18,0.00,,,0.00,VWS V14.01,2013-03-22 05:58:00,
2013-03-22 02:00:00,28.4,-9.7,29.62,WSW,248,2.0,2.7,18,0.00,,,0.00,VWS V14.01,2013-03-22 06:00:00,
2013-03-22 02:02:00,28.4,-9.7,29.62,WSW,248,2.7,2.7,18,0.00,,,0.00,VWS V14.01,2013-03-22 06:02:00,
2013-03-22 02:03:00,28.4,-9.7,29.62,WSW,248,0.0,2.5,18,0.00,,,0.00,VWS V14.01,2013-03-22 06:03:00,
2013-03-22 02:05:00,28.2,-9.8,29.62,WSW,248,0.0,1.1,18,0.00,,,0.00,VWS V14.01,2013-03-22 06:05:00,
2013-03-22 02:07:00,28.2,-9.8,29.62,WSW,248,2.5,2.5,18,0.00,,,0.00,VWS V14.01,2013-03-22 06:07:00,
2013-03-22 02:08:00,28.2,-9.8,29.62,WSW,248,2.9,2.9,18,0.00,,,0.00,VWS V14.01,2013-03-22 06:08:00,
2013-03-22 02:10:00,28.2,-9.8,29.62,WSW,248,1.6,3.1,18,0.00,,,0.00,VWS V14.01,2013-03-22 06:10:00,
2013-03-22 02:12:00,28.2,-9.8,29.62,WSW,248,2.7,6.3,18,0.00,,,0.00,VWS V14.01,2013-03-22 06:12:00,
2013-03-22 02:13:00,28.4,-9.7,29.62,WSW,248,1.6,3.1,18,0.00,,,0.00,VWS V14.01,2013-03-22 06:13:00,
2013-03-22 02:15:00,28.4,-9.7,29.62,WSW,248,2.2,3.6,18,0.00,,,0.00,VWS V14.01,2013-03-22 06:15:00,
2013-03-22 02:17:00,28.2,-9.8,29.62,WSW,248,2.7,2.7,18,0.00,,,0.00,VWS V14.01,2013-03-22 06:17:00,
2013-03-22 02:18:00,28.2,-9.8,29.62,WSW,248,0.0,0.0,18,0.00,,,0.00,VWS V14.01,2013-03-22 06:18:00,
2013-03-22 02:20:00,28.2,-9.8,29.62,WSW,248,1.6,1.6,18,0.00,,,0.00,VWS V14.01,2013-03-22 06:20:00,
2013-03-22 02:22:00,28.2,-9.8,29.62,WSW,248,1.1,1.1,18,0.00,,,0.00,VWS V14.01,2013-03-22 06:22:00,
2013-03-22 02:23:00,28.2,-9.8,29.62,WSW,248,1.3,2.2,18,0.00,,,0.00,VWS V14.01,2013-03-22 06:23:00,
2013-03-22 02:24:00,28.2,-9.8,29.62,WSW,248,2.2,2.2,18,0.00,,,0.00,VWS V14.01,2013-03-22 06:24:00,
2013-03-22 02:25:00,28.2,-9.8,29.62,WSW,248,1.1,3.8,18,0.00,,,0.00,VWS V14.01,2013-03-22 06:25:00,
2013-03-22 02:28:00,28.2,-9.8,29.62,WSW,248,2.5,2.5,18,0.00,,,0.00,VWS V14.01,2013-03-22 06:28:00,
2013-03-22 02:29:00,28.2,-9.8,29.62,WSW,248,1.1,4.0,18,0.00,,,0.00,VWS V14.01,2013-03-22 06:29:00,
2013-03-22 02:31:00,28.0,-10.0,29.62,WSW,248,0.0,2.2,18,0.00,,,0.00,VWS V14.01,2013-03-22 06:31:00,
2013-03-22 02:33:00,28.0,-10.0,29.62,WSW,248,0.0,1.1,18,0.00,,,0.00,VWS V14.01,2013-03-22 06:33:00,
2013-03-22 02:34:00,28.0,-10.0,29.62,WSW,248,2.5,2.9,18,0.00,,,0.00,VWS V14.01,2013-03-22 06:34:00,
2013-03-22 02:36:00,28.0,-10.0,29.62,WSW,248,1.3,1.3,18,0.00,,,0.00,VWS V14.01,2013-03-22 06:36:00,
2013-03-22 02:38:00,27.9,-10.1,29.62,WSW,248,0.0,2.7,18,0.00,,,0.00,VWS V14.01,2013-03-22 06:38:00,
2013-03-22 02:39:00,27.9,-10.1,29.62,WSW,248,0.0,1.6,18,0.00,,,0.00,VWS V14.01,2013-03-22 06:39:00,
2013-03-22 02:41:00,28.0,-10.0,29.62,WSW,248,0.0,2.5,18,0.00,,,0.00,VWS V14.01,2013-03-22 06:41:00,
2013-03-22 02:44:00,28.0,-10.0,29.62,WSW,248,0.0,0.0,18,0.00,,,0.00,VWS V14.01,2013-03-22 06:44:00,
2013-03-22 02:47:00,28.0,-10.0,29.62,WSW,248,1.1,1.1,18,0.00,,,0.00,VWS V14.01,2013-03-22 06:47:00,
2013-03-22 02:49:00,28.0,-10.0,29.62,WSW,248,0.9,1.1,18,0.00,,,0.00,VWS V14.01,2013-03-22 06:49:00,
2013-03-22 02:52:00,27.9,-10.1,29.62,WSW,248,0.0,0.0,18,0.00,,,0.00,VWS V14.01,2013-03-22 06:52:00,
2013-03-22 02:54:00,27.9,-10.1,29.62,WSW,248,0.0,0.0,18,0.00,,,0.00,VWS V14.01,2013-03-22 06:54:00,
2013-03-22 02:57:00,27.9,-10.1,29.62,WSW,248,1.1,1.3,18,0.00,,,0.00,VWS V14.01,2013-03-22 06:57:00,
2013-03-22 02:59:00,27.9,-10.1,29.62,WSW,248,2.0,2.0,18,0.00,,,0.00,VWS V14.01,2013-03-22 06:59:00,
2013-03-22 03:02:00,27.9,-10.1,29.62,WSW,248,2.0,2.9,18,0.00,,,0.00,VWS V14.01,2013-03-22 07:02:00,
2013-03-22 03:04:00,27.9,-10.1,29.62,WSW,248,0.0,2.5,18,0.00,,,0.00,VWS V14.01,2013-03-22 07:04:00,
2013-03-22 03:07:00,27.9,-10.1,29.62,WSW,248,0.9,1.6,18,0.00,,,0.00,VWS V14.01,2013-03-22 07:07:00,
2013-03-22 03:09:00,27.9,-10.1,29.62,WSW,248,0.0,1.1,18,0.00,,,0.00,VWS V14.01,2013-03-22 07:09:00,
2013-03-22 03:10:00,27.9,-10.1,29.62,WSW,248,1.1,2.9,18,0.00,,,0.00,VWS V14.01,2013-03-22 07:10:00,
2013-03-22 03:12:00,27.9,-10.1,29.62,WSW,248,1.1,1.3,18,0.00,,,0.00,VWS V14.01,2013-03-22 07:12:00,
2013-03-22 03:14:00,27.9,-10.1,29.62,WSW,248,0.0,0.0,18,0.00,,,0.00,VWS V14.01,2013-03-22 07:14:00,
2013-03-22 03:15:00,27.9,-10.1,29.62,WSW,248,0.0,0.0,18,0.00,,,0.00,VWS V14.01,2013-03-22 07:15:00,
2013-03-22 03:17:00,27.9,-10.1,29.62,WSW,248,0.9,1.6,18,0.00,,,0.00,VWS V14.01,2013-03-22 07:17:00,
2013-03-22 03:19:00,27.9,-10.1,29.62,WSW,248,0.0,0.9,18,0.00,,,0.00,VWS V14.01,2013-03-22 07:19:00,
2013-03-22 03:20:00,27.9,-10.1,29.62,WSW,248,1.6,2.9,18,0.00,,,0.00,VWS V14.01,2013-03-22 07:20:00,
2013-03-22 03:22:00,27.9,-10.1,29.62,WSW,248,4.5,4.5,18,0.00,,,0.00,VWS V14.01,2013-03-22 07:22:00,
2013-03-22 03:24:00,27.9,-10.1,29.62,WSW,248,0.0,2.7,18,0.00,,,0.00,VWS V14.01,2013-03-22 07:24:00,
2013-03-22 03:25:00,27.9,-10.1,29.62,WSW,248,1.1,2.7,18,0.00,,,0.00,VWS V14.01,2013-03-22 07:25:00,
2013-03-22 03:27:00,27.9,-10.1,29.62,WSW,248,0.0,1.3,18,0.00,,,0.00,VWS V14.01,2013-03-22 07:27:00,
2013-03-22 03:29:00,27.9,-10.1,29.62,WSW,248,0.0,2.7,18,0.00,,,0.00,VWS V14.01,2013-03-22 07:29:00,
2013-03-22 03:30:00,27.9,-10.1,29.62,WSW,248,2.5,2.5,18,0.00,,,0.00,VWS V14.01,2013-03-22 07:30:00,
2013-03-22 03:32:00,27.9,-10.1,29.62,WSW,248,0.0,0.0,18,0.00,,,0.00,VWS V14.01,2013-03-22 07:32:00,
2013-03-22 03:34:00,28.0,-10.0,29.62,WSW,248,1.6,3.6,18,0.00,,,0.00,VWS V14.01,2013-03-22 07:34:00,
2013-03-22 03:35:00,28.0,-10.0,29.62,WSW,248,0.9,1.6,18,0.00,,,0.00,VWS V14.01,2013-03-22 07:35:00,
2013-03-22 03:37:00,28.0,-10.0,29.62,WSW,248,0.0,0.0,18,0.00,,,0.00,VWS V14.01,2013-03-22 07:37:00,
2013-03-22 03:39:00,28.0,-10.0,29.62,WSW,248,0.0,1.1,18,0.00,,,0.12,VWS V14.01,2013-03-22 07:39:00,
2013-03-22 03:40:00,28.0,-10.0,29.62,WSW,248,2.7,3.8,18,0.00,,,0.00,VWS V14.01,2013-03-22 07:40:00,
2013-03-22 03:43:00,28.0,-10.0,29.62,WSW,248,2.0,3.1,18,0.00,,,0.00,VWS V14.01,2013-03-22 07:43:00,
2013-03-22 03:44:00,28.0,-10.0,29.62,WSW,248,0.9,4.9,18,0.00,,,0.00,VWS V14.01,2013-03-22 07:44:00,
2013-03-22 03:45:00,28.0,-10.0,29.62,WSW,248,0.0,2.0,18,0.00,,,0.00,VWS V14.01,2013-03-22 07:45:00,
2013-03-22 03:48:00,28.0,-10.0,29.62,WSW,248,0.9,1.6,18,0.00,,,0.00,VWS V14.01,2013-03-22 07:48:00,
2013-03-22 03:49:00,28.0,-10.0,29.62,WSW,248,0.0,0.0,18,0.00,,,0.00,VWS V14.01,2013-03-22 07:49:00,
2013-03-22 03:50:00,28.0,-10.0,29.62,WSW,248,1.6,1.6,18,0.00,,,0.00,VWS V14.01,2013-03-22 07:50:00,
2013-03-22 03:53:00,27.9,-10.1,29.62,WSW,248,3.4,3.4,18,0.00,,,0.00,VWS V14.01,2013-03-22 07:53:00,
2013-03-22 03:54:00,27.9,-10.1,29.62,WSW,248,1.3,2.0,18,0.00,,,0.00,VWS V14.01,2013-03-22 07:54:00,
2013-03-22 03:55:00,28.0,-10.0,29.62,WSW,248,0.0,2.0,18,0.00,,,0.00,VWS V14.01,2013-03-22 07:55:00,
2013-03-22 03:58:00,27.9,-10.1,29.62,WSW,248,0.0,2.0,18,0.00,,,0.00,VWS V14.01,2013-03-22 07:58:00,
2013-03-22 03:59:00,27.9,-10.1,29.62,WSW,248,0.0,1.6,18,0.00,,,0.00,VWS V14.01,2013-03-22 07:59:00,
2013-03-22 04:00:00,27.9,-10.1,29.62,WSW,248,1.1,1.6,18,0.00,,,0.00,VWS V14.01,2013-03-22 08:00:00,
2013-03-22 04:03:00,27.9,-10.1,29.62,WSW,248,0.0,0.0,18,0.00,,,0.00,VWS V14.01,2013-03-22 08:03:00,
2013-03-22 04:05:00,27.9,-10.1,29.62,WSW,248,0.0,0.9,18,0.00,,,0.00,VWS V14.01,2013-03-22 08:05:00,
2013-03-22 04:08:00,27.9,-10.1,29.62,WSW,248,2.0,2.2,18,0.00,,,0.00,VWS V14.01,2013-03-22 08:08:00,
2013-03-22 04:10:00,27.9,-10.1,29.59,WSW,248,1.1,2.9,18,0.00,,,0.00,VWS V14.01,2013-03-22 08:10:00,
2013-03-22 04:11:00,27.9,-10.1,29.59,WSW,248,2.0,2.7,18,0.00,,,0.00,VWS V14.01,2013-03-22 08:11:00,
2013-03-22 04:13:00,27.9,-10.1,29.59,WSW,248,3.4,3.4,18,0.00,,,0.00,VWS V14.01,2013-03-22 08:13:00,
2013-03-22 04:15:00,27.9,-10.1,29.59,WSW,248,0.9,2.7,18,0.00,,,0.00,VWS V14.01,2013-03-22 08:15:00,
2013-03-22 04:16:00,27.9,-10.1,29.59,WSW,248,0.0,0.0,18,0.00,,,0.00,VWS V14.01,2013-03-22 08:16:00,
2013-03-22 04:18:00,27.9,-10.1,29.59,WSW,248,0.0,0.0,18,0.00,,,0.00,VWS V14.01,2013-03-22 08:18:00,
2013-03-22 04:20:00,27.9,-10.1,29.59,WSW,248,2.7,2.7,18,0.00,,,0.00,VWS V14.01,2013-03-22 08:20:00,
2013-03-22 04:21:00,27.9,-10.1,29.59,WSW,248,0.0,0.0,18,0.00,,,0.00,VWS V14.01,2013-03-22 08:21:00,
2013-03-22 04:23:00,27.9,-10.1,29.59,WSW,248,1.1,2.5,18,0.00,,,0.00,VWS V14.01,2013-03-22 08:23:00,
2013-03-22 04:25:00,27.7,-10.3,29.59,WSW,248,0.0,1.6,18,0.00,,,0.00,VWS V14.01,2013-03-22 08:25:00,
2013-03-22 04:27:00,27.7,-10.3,29.59,WSW,248,0.0,0.0,18,0.00,,,0.00,VWS V14.01,2013-03-22 08:27:00,
2013-03-22 04:29:00,27.7,-10.3,29.59,WSW,248,1.1,3.6,18,0.00,,,0.00,VWS V14.01,2013-03-22 08:29:00,
2013-03-22 04:30:00,27.7,-10.3,29.59,WSW,248,3.1,3.1,18,0.00,,,0.00,VWS V14.01,2013-03-22 08:30:00,
2013-03-22 04:32:00,27.7,-10.3,29.59,WSW,248,0.9,3.1,18,0.00,,,0.00,VWS V14.01,2013-03-22 08:32:00,
2013-03-22 04:34:00,27.7,-10.3,29.59,WSW,248,1.1,2.0,18,0.00,,,0.00,VWS V14.01,2013-03-22 08:34:00,
2013-03-22 04:35:00,27.7,-10.3,29.59,WSW,248,1.1,2.0,18,0.00,,,0.00,VWS V14.01,2013-03-22 08:35:00,
2013-03-22 04:37:00,27.9,-10.1,29.59,WSW,248,0.0,0.0,18,0.00,,,0.00,VWS V14.01,2013-03-22 08:37:00,
2013-03-22 04:40:00,27.7,-10.3,29.62,WSW,248,0.0,0.0,18,0.00,,,0.00,VWS V14.01,2013-03-22 08:40:00,
2013-03-22 04:42:00,27.7,-10.3,29.62,WSW,248,1.1,1.3,18,0.00,,,0.00,VWS V14.01,2013-03-22 08:42:00,
2013-03-22 04:45:00,27.7,-10.3,29.62,WSW,248,1.3,1.6,18,0.00,,,0.00,VWS V14.01,2013-03-22 08:45:00,
2013-03-22 04:46:00,27.7,-10.3,29.62,WSW,248,1.3,1.6,18,0.00,,,0.00,VWS V14.01,2013-03-22 08:46:00,
2013-03-22 04:47:00,27.5,-10.4,29.62,WSW,248,1.1,3.1,18,0.00,,,0.00,VWS V14.01,2013-03-22 08:47:00,
2013-03-22 04:50:00,27.5,-10.4,29.62,WSW,248,2.2,2.2,18,0.00,,,0.00,VWS V14.01,2013-03-22 08:50:00,
2013-03-22 04:51:00,27.5,-10.4,29.62,WSW,248,0.9,2.2,18,0.00,,,0.00,VWS V14.01,2013-03-22 08:51:00,
2013-03-22 04:53:00,27.7,-10.3,29.62,WSW,248,1.3,2.9,18,0.00,,,0.00,VWS V14.01,2013-03-22 08:53:00,
2013-03-22 04:55:00,27.7,-10.3,29.62,WSW,248,1.6,1.6,18,0.00,,,0.00,VWS V14.01,2013-03-22 08:55:00,
2013-03-22 04:56:00,27.7,-10.3,29.62,WSW,248,0.0,1.6,18,0.00,,,0.00,VWS V14.01,2013-03-22 08:56:00,
2013-03-22 04:58:00,27.5,-10.4,29.62,WSW,248,0.9,0.9,18,0.00,,,0.00,VWS V14.01,2013-03-22 08:58:00,
2013-03-22 05:00:00,27.5,-10.4,29.62,WSW,248,0.0,0.0,18,0.00,,,0.00,VWS V14.01,2013-03-22 09:00:00,
2013-03-22 05:01:00,27.5,-10.4,29.62,WSW,248,1.3,1.3,18,0.00,,,0.00,VWS V14.01,2013-03-22 09:01:00,
2013-03-22 05:03:00,27.7,-10.3,29.62,WSW,248,0.9,1.1,18,0.00,,,0.00,VWS V14.01,2013-03-22 09:03:00,
2013-03-22 05:05:00,27.5,-10.4,29.62,WSW,248,0.9,0.9,18,0.00,,,0.00,VWS V14.01,2013-03-22 09:05:00,
2013-03-22 05:06:00,27.5,-10.4,29.62,WSW,248,0.9,0.9,18,0.00,,,0.00,VWS V14.01,2013-03-22 09:06:00,
2013-03-22 05:08:00,27.5,-10.4,29.62,WSW,248,1.6,1.6,18,0.00,,,0.00,VWS V14.01,2013-03-22 09:08:00,
2013-03-22 05:11:00,27.5,-10.4,29.62,WSW,248,0.9,0.9,18,0.00,,,0.00,VWS V14.01,2013-03-22 09:11:00,
2013-03-22 05:13:00,27.5,-10.4,29.62,WSW,248,0.0,1.3,18,0.00,,,0.00,VWS V14.01,2013-03-22 09:13:00,
2013-03-22 05:16:00,27.3,-10.6,29.62,WSW,248,0.0,0.0,18,0.00,,,0.00,VWS V14.01,2013-03-22 09:16:00,
2013-03-22 05:17:00,27.3,-10.6,29.62,WSW,248,3.1,3.1,18,0.00,,,0.00,VWS V14.01,2013-03-22 09:17:00,
2013-03-22 05:18:00,27.3,-10.6,29.62,WSW,248,0.0,1.1,18,0.00,,,0.00,VWS V14.01,2013-03-22 09:18:00,
2013-03-22 05:21:00,27.3,-10.6,29.62,WSW,248,0.0,0.0,18,0.00,,,0.00,VWS V14.01,2013-03-22 09:21:00,
2013-03-22 05:22:00,27.3,-10.6,29.62,WSW,248,0.0,1.6,18,0.00,,,0.00,VWS V14.01,2013-03-22 09:22:00,
2013-03-22 05:24:00,27.3,-10.6,29.62,WSW,248,0.0,0.0,18,0.00,,,0.00,VWS V14.01,2013-03-22 09:24:00,
2013-03-22 05:26:00,27.3,-10.6,29.62,WSW,248,0.0,1.1,18,0.00,,,0.00,VWS V14.01,2013-03-22 09:26:00,
2013-03-22 05:27:00,27.3,-10.6,29.62,WSW,248,0.0,1.1,18,0.00,,,0.00,VWS V14.01,2013-03-22 09:27:00,
2013-03-22 05:29:00,27.3,-10.6,29.62,WSW,248,0.0,0.0,18,0.00,,,0.00,VWS V14.01,2013-03-22 09:29:00,
2013-03-22 05:31:00,27.3,-10.6,29.62,WSW,248,0.0,0.0,18,0.00,,,0.00,VWS V14.01,2013-03-22 09:31:00,
2013-03-22 05:32:00,27.3,-10.6,29.62,WSW,248,0.0,0.0,18,0.00,,,0.00,VWS V14.01,2013-03-22 09:32:00,
2013-03-22 05:34:00,27.3,-10.6,29.62,WSW,248,0.0,1.3,18,0.00,,,0.00,VWS V14.01,2013-03-22 09:34:00,
2013-03-22 05:36:00,27.3,-10.6,29.62,WSW,248,2.5,2.7,18,0.00,,,0.00,VWS V14.01,2013-03-22 09:36:00,
2013-03-22 05:37:00,27.3,-10.6,29.62,WSW,248,2.2,2.7,18,0.00,,,0.00,VWS V14.01,2013-03-22 09:37:00,
2013-03-22 05:39:00,27.3,-10.6,29.62,WSW,248,0.0,1.3,18,0.00,,,0.00,VWS V14.01,2013-03-22 09:39:00,
2013-03-22 05:41:00,27.5,-10.4,29.62,WSW,248,0.0,0.0,18,0.00,,,0.00,VWS V14.01,2013-03-22 09:41:00,
2013-03-22 05:42:00,27.5,-10.4,29.62,WSW,248,0.9,1.3,18,0.00,,,0.00,VWS V14.01,2013-03-22 09:42:00,
2013-03-22 05:44:00,27.5,-10.4,29.62,WSW,248,1.1,2.7,18,0.00,,,0.00,VWS V14.01,2013-03-22 09:44:00,
2013-03-22 05:47:00,27.5,-10.4,29.62,WSW,248,0.0,0.0,18,0.00,,,0.00,VWS V14.01,2013-03-22 09:47:00,
2013-03-22 05:49:00,27.5,-10.4,29.62,WSW,248,2.5,2.5,18,0.00,,,0.00,VWS V14.01,2013-03-22 09:49:00,
2013-03-22 05:52:00,27.5,-10.4,29.62,WSW,248,1.6,1.6,18,0.00,,,0.00,VWS V14.01,2013-03-22 09:52:00,
2013-03-22 05:54:00,27.5,-10.4,29.62,WSW,248,0.0,0.9,18,0.00,,,0.00,VWS V14.01,2013-03-22 09:54:00,
2013-03-22 05:57:00,27.5,-10.4,29.62,WSW,248,3.8,3.8,18,0.00,,,0.00,VWS V14.01,2013-03-22 09:57:00,
2013-03-22 05:59:00,27.3,-10.6,29.62,WSW,248,0.0,0.0,18,0.00,,,0.00,VWS V14.01,2013-03-22 09:59:00,
2013-03-22 06:02:00,27.3,-10.6,29.62,WSW,248,0.0,0.0,18,0.00,,,0.00,VWS V14.01,2013-03-22 10:02:00,
2013-03-22 06:03:00,27.3,-10.6,29.62,WSW,248,0.0,0.0,18,0.00,,,0.00,VWS V14.01,2013-03-22 10:03:00,
2013-03-22 06:04:00,27.3,-10.6,29.62,WSW,248,0.0,0.0,18,0.00,,,0.00,VWS V14.01,2013-03-22 10:04:00,
2013-03-22 06:07:00,27.3,-10.6,29.62,WSW,248,0.0,0.0,18,0.00,,,0.00,VWS V14.01,2013-03-22 10:07:00,
2013-03-22 06:08:00,27.3,-10.6,29.62,WSW,248,0.0,2.9,18,0.00,,,0.00,VWS V14.01,2013-03-22 10:08:00,
2013-03-22 06:09:00,27.3,-10.6,29.62,WSW,248,0.0,2.9,18,0.00,,,0.00,VWS V14.01,2013-03-22 10:09:00,
2013-03-22 06:12:00,27.3,-10.6,29.62,WSW,248,0.0,0.0,18,0.00,,,0.00,VWS V14.01,2013-03-22 10:12:00,
2013-03-22 06:13:00,27.3,-10.6,29.62,WSW,248,0.0,2.0,18,0.00,,,0.00,VWS V14.01,2013-03-22 10:13:00,
2013-03-22 06:14:00,27.3,-10.6,29.62,WSW,248,1.1,2.0,18,0.00,,,0.00,VWS V14.01,2013-03-22 10:14:00,
2013-03-22 06:17:00,27.3,-10.6,29.62,WSW,248,0.0,0.0,18,0.00,,,0.00,VWS V14.01,2013-03-22 10:17:00,
2013-03-22 06:18:00,27.3,-7.4,29.62,WSW,248,1.6,1.6,21,0.00,,,0.00,VWS V14.01,2013-03-22 10:18:00,
2013-03-22 06:19:00,27.3,-10.6,29.62,WSW,248,0.0,2.2,18,0.00,,,0.00,VWS V14.01,2013-03-22 10:19:00,
2013-03-22 06:22:00,27.3,-10.6,29.62,WSW,248,0.0,1.3,18,0.00,,,0.00,VWS V14.01,2013-03-22 10:22:00,
2013-03-22 06:23:00,27.3,-10.6,29.62,WSW,248,0.0,0.0,18,0.00,,,0.00,VWS V14.01,2013-03-22 10:23:00,
2013-03-22 06:24:00,27.3,-10.6,29.65,WSW,248,0.0,0.0,18,0.00,,,0.00,VWS V14.01,2013-03-22 10:24:00,
2013-03-22 06:27:00,27.1,-10.7,29.65,WSW,248,0.9,0.9,18,0.00,,,0.00,VWS V14.01,2013-03-22 10:27:00,
2013-03-22 06:28:00,27.1,-7.6,29.65,WSW,248,0.9,0.9,21,0.00,,,0.00,VWS V14.01,2013-03-22 10:28:00,
2013-03-22 06:29:00,27.1,-7.6,29.65,WSW,248,0.9,1.6,21,0.00,,,0.00,VWS V14.01,2013-03-22 10:29:00,
2013-03-22 06:32:00,27.1,-7.6,29.65,WSW,248,1.1,1.3,21,0.00,,,0.00,VWS V14.01,2013-03-22 10:32:00,
2013-03-22 06:33:00,27.1,-7.6,29.65,WSW,248,0.9,1.3,21,0.00,,,0.00,VWS V14.01,2013-03-22 10:33:00,
2013-03-22 06:34:00,27.1,-7.6,29.65,WSW,248,0.0,4.0,21,0.00,,,0.00,VWS V14.01,2013-03-22 10:34:00,
2013-03-22 06:37:00,27.1,-7.6,29.65,WSW,248,0.0,0.0,21,0.00,,,0.00,VWS V14.01,2013-03-22 10:37:00,
2013-03-22 06:38:00,27.1,-7.6,29.65,WSW,248,2.7,2.7,21,0.00,,,0.00,VWS V14.01,2013-03-22 10:38:00,
2013-03-22 06:39:00,27.1,-10.7,29.65,WSW,248,0.0,2.7,18,0.00,,,0.00,VWS V14.01,2013-03-22 10:39:00,
2013-03-22 06:43:00,27.0,-7.8,29.65,WSW,248,0.0,0.0,21,0.00,,,0.00,VWS V14.01,2013-03-22 10:43:00,
2013-03-22 06:44:00,27.0,-10.9,29.65,WSW,248,0.0,0.0,18,0.00,,,0.00,VWS V14.01,2013-03-22 10:44:00,
2013-03-22 06:48:00,27.0,-7.8,29.65,WSW,248,0.0,1.6,21,0.00,,,0.00,VWS V14.01,2013-03-22 10:48:00,
2013-03-22 06:49:00,27.0,-7.8,29.65,WSW,248,1.3,1.3,21,0.00,,,0.00,VWS V14.01,2013-03-22 10:49:00,
2013-03-22 06:53:00,27.0,-7.8,29.65,WSW,248,0.0,0.0,21,0.00,,,0.00,VWS V14.01,2013-03-22 10:53:00,
2013-03-22 06:54:00,27.1,-7.6,29.65,WSW,248,2.9,2.9,21,0.00,,,0.00,VWS V14.01,2013-03-22 10:54:00,
2013-03-22 06:58:00,27.1,-7.6,29.65,WSW,248,0.0,1.1,21,0.00,,,0.00,VWS V14.01,2013-03-22 10:58:00,
2013-03-22 06:59:00,27.1,-7.6,29.65,WSW,248,0.0,0.0,21,0.00,,,0.00,VWS V14.01,2013-03-22 10:59:00,
2013-03-22 07:00:00,27.1,-7.6,29.65,WSW,248,0.9,0.9,21,0.00,,,0.00,VWS V14.01,2013-03-22 11:00:00,
2013-03-22 07:03:00,27.3,-7.4,29.65,WSW,248,0.9,2.7,21,0.00,,,0.00,VWS V14.01,2013-03-22 11:03:00,
2013-03-22 07:04:00,27.3,-7.4,29.65,WSW,248,0.0,0.9,21,0.00,,,0.00,VWS V14.01,2013-03-22 11:04:00,
2013-03-22 07:05:00,27.3,-7.4,29.65,WSW,248,1.6,1.6,21,0.00,,,0.00,VWS V14.01,2013-03-22 11:05:00,
2013-03-22 07:08:00,27.3,-7.4,29.65,WSW,248,0.0,0.0,21,0.00,,,0.00,VWS V14.01,2013-03-22 11:08:00,
2013-03-22 07:09:00,27.3,-7.4,29.65,WSW,248,0.9,0.9,21,0.00,,,0.00,VWS V14.01,2013-03-22 11:09:00,
2013-03-22 07:10:00,27.3,-7.4,29.65,WSW,248,0.0,0.9,21,0.00,,,0.00,VWS V14.01,2013-03-22 11:10:00,
2013-03-22 07:13:00,27.5,-7.3,29.65,WSW,248,1.6,1.6,21,0.00,,,0.00,VWS V14.01,2013-03-22 11:13:00,
2013-03-22 07:14:00,27.5,-7.3,29.65,WSW,248,1.6,1.6,21,0.00,,,0.00,VWS V14.01,2013-03-22 11:14:00,
2013-03-22 07:15:00,27.5,-7.3,29.65,WSW,248,1.6,1.6,21,0.00,,,0.00,VWS V14.01,2013-03-22 11:15:00,
2013-03-22 07:18:00,27.5,-7.3,29.65,WSW,248,0.0,0.0,21,0.00,,,0.00,VWS V14.01,2013-03-22 11:18:00,
2013-03-22 07:19:00,27.5,-7.3,29.65,WSW,248,0.0,0.0,21,0.00,,,0.00,VWS V14.01,2013-03-22 11:19:00,
2013-03-22 07:20:00,27.7,-7.2,29.65,WSW,248,0.0,0.0,21,0.00,,,0.00,VWS V14.01,2013-03-22 11:20:00,
2013-03-22 07:23:00,27.7,-7.2,29.65,WSW,248,0.0,0.0,21,0.00,,,0.00,VWS V14.01,2013-03-22 11:23:00,
2013-03-22 07:24:00,27.7,-7.2,29.65,WSW,248,0.0,0.0,21,0.00,,,0.00,VWS V14.01,2013-03-22 11:24:00,
2013-03-22 07:25:00,27.7,-7.2,29.65,WSW,248,0.0,0.0,21,0.00,,,0.00,VWS V14.01,2013-03-22 11:25:00,
2013-03-22 07:28:00,27.7,-7.2,29.65,WSW,248,0.0,0.0,21,0.00,,,0.00,VWS V14.01,2013-03-22 11:28:00,
2013-03-22 07:29:00,27.9,-7.0,29.65,WSW,248,0.0,0.0,21,0.00,,,0.00,VWS V14.01,2013-03-22 11:29:00,
2013-03-22 07:30:00,27.9,-7.0,29.65,WSW,248,0.0,0.0,21,0.00,,,0.00,VWS V14.01,2013-03-22 11:30:00,
2013-03-22 07:33:00,27.9,-7.0,29.65,WSW,248,0.0,0.0,21,0.00,,,0.00,VWS V14.01,2013-03-22 11:33:00,
2013-03-22 07:34:00,27.9,-7.0,29.65,WSW,248,0.0,0.0,21,0.00,,,0.00,VWS V14.01,2013-03-22 11:34:00,
2013-03-22 07:35:00,27.9,-7.0,29.65,WSW,248,0.0,0.0,21,0.00,,,0.00,VWS V14.01,2013-03-22 11:35:00,
2013-03-22 07:39:00,28.0,-6.8,29.65,WSW,248,0.0,0.0,21,0.00,,,0.00,VWS V14.01,2013-03-22 11:39:00,
2013-03-22 07:40:00,28.0,-6.8,29.65,WSW,248,0.0,0.0,21,0.00,,,0.00,VWS V14.01,2013-03-22 11:40:00,
2013-03-22 07:44:00,28.2,-6.7,29.65,WSW,248,0.0,0.0,21,0.00,,,0.00,VWS V14.01,2013-03-22 11:44:00,
2013-03-22 07:45:00,28.4,-6.5,29.65,WSW,248,0.0,0.0,21,0.00,,,0.00,VWS V14.01,2013-03-22 11:45:00,
2013-03-22 07:49:00,28.6,-7.4,29.65,WSW,248,0.0,0.0,20,0.00,,,0.00,VWS V14.01,2013-03-22 11:49:00,
2013-03-22 07:50:00,28.6,-7.4,29.65,WSW,248,0.0,0.0,20,0.00,,,0.00,VWS V14.01,2013-03-22 11:50:00,
2013-03-22 07:54:00,28.6,-7.4,29.65,WSW,248,0.0,0.0,20,0.00,,,0.00,VWS V14.01,2013-03-22 11:54:00,
2013-03-22 07:55:00,28.6,-7.4,29.65,WSW,248,0.0,0.0,20,0.00,,,0.00,VWS V14.01,2013-03-22 11:55:00,
2013-03-22 07:59:00,28.8,-7.2,29.65,WSW,248,0.0,0.0,20,0.00,,,0.00,VWS V14.01,2013-03-22 11:59:00,
2013-03-22 08:00:00,28.8,-7.2,29.65,WSW,248,0.0,0.0,20,0.00,,,0.00,VWS V14.01,2013-03-22 12:00:00,
2013-03-22 08:04:00,29.1,-6.9,29.65,WSW,248,0.0,0.0,20,0.00,,,0.00,VWS V14.01,2013-03-22 12:04:00,
2013-03-22 08:05:00,29.1,-6.9,29.65,WSW,248,0.0,0.0,20,0.00,,,0.00,VWS V14.01,2013-03-22 12:05:00,
2013-03-22 08:10:00,29.5,-6.6,29.65,WSW,248,0.0,0.0,20,0.00,,,0.00,VWS V14.01,2013-03-22 12:10:00,
2013-03-22 08:15:00,29.5,-6.6,29.65,WSW,248,0.0,0.0,20,0.00,,,0.00,VWS V14.01,2013-03-22 12:15:00,
2013-03-22 08:16:00,29.7,-6.5,29.65,WSW,248,0.0,0.0,20,0.00,,,0.00,VWS V14.01,2013-03-22 12:16:00,
2013-03-22 08:20:00,29.8,-6.3,29.65,WSW,248,0.0,0.0,20,0.00,,,0.00,VWS V14.01,2013-03-22 12:20:00,
2013-03-22 08:21:00,29.8,-6.3,29.65,WSW,248,0.0,0.0,20,0.00,,,0.00,VWS V14.01,2013-03-22 12:21:00,
2013-03-22 08:25:00,30.2,-6.0,29.65,WSW,248,0.0,0.0,20,0.00,,,0.00,VWS V14.01,2013-03-22 12:25:00,
2013-03-22 08:26:00,30.2,-6.0,29.65,WSW,248,0.0,0.0,20,0.00,,,0.00,VWS V14.01,2013-03-22 12:26:00,
2013-03-22 08:30:00,30.6,-5.7,29.65,WSW,248,0.0,0.0,20,0.00,,,0.00,VWS V14.01,2013-03-22 12:30:00,
2013-03-22 08:31:00,30.6,-5.7,29.65,WSW,248,0.0,0.0,20,0.00,,,0.00,VWS V14.01,2013-03-22 12:31:00,
2013-03-22 08:35:00,30.9,-5.4,29.65,WSW,248,0.0,0.0,20,0.00,,,0.00,VWS V14.01,2013-03-22 12:35:00,
2013-03-22 08:36:00,30.9,-5.4,29.65,WSW,248,0.0,0.0,20,0.00,,,0.00,VWS V14.01,2013-03-22 12:36:00,
2013-03-22 08:40:00,31.3,-5.1,29.65,WSW,248,0.0,0.0,20,0.00,,,0.00,VWS V14.01,2013-03-22 12:40:00,
2013-03-22 08:41:00,31.5,-5.0,29.65,WSW,248,0.0,0.0,20,0.00,,,0.12,VWS V14.01,2013-03-22 12:41:00,
2013-03-22 08:42:00,31.6,-4.8,29.65,WSW,248,0.0,0.0,20,0.00,,,0.00,VWS V14.01,2013-03-22 12:42:00,
2013-03-22 08:45:00,31.8,-4.7,29.65,WSW,248,0.0,0.0,20,0.00,,,0.00,VWS V14.01,2013-03-22 12:45:00,
2013-03-22 08:46:00,31.8,-4.7,29.65,WSW,248,0.0,0.0,20,0.00,,,0.00,VWS V14.01,2013-03-22 12:46:00,
2013-03-22 08:47:00,32.2,-4.4,29.65,WSW,248,0.0,0.0,20,0.00,,,0.00,VWS V14.01,2013-03-22 12:47:00,
2013-03-22 08:50:00,32.4,-4.2,29.65,WSW,248,0.0,0.0,20,0.00,,,0.00,VWS V14.01,2013-03-22 12:50:00,
2013-03-22 08:51:00,32.4,-4.2,29.65,WSW,248,0.0,0.0,20,0.00,,,0.00,VWS V14.01,2013-03-22 12:51:00,
2013-03-22 08:53:00,32.4,-4.2,29.65,WSW,248,0.0,0.0,20,0.00,,,0.00,VWS V14.01,2013-03-22 12:53:00,
2013-03-22 08:55:00,32.5,-4.1,29.65,WSW,248,0.0,0.0,20,0.00,,,0.00,VWS V14.01,2013-03-22 12:55:00,
2013-03-22 08:56:00,32.5,-4.1,29.65,WSW,248,0.0,0.0,20,0.00,,,0.00,VWS V14.01,2013-03-22 12:56:00,
2013-03-22 08:58:00,32.5,-4.1,29.65,WSW,248,0.0,0.0,20,0.00,,,0.00,VWS V14.01,2013-03-22 12:58:00,
2013-03-22 09:00:00,32.7,-3.9,29.65,WSW,248,0.0,0.0,20,0.00,,,0.00,VWS V14.01,2013-03-22 13:00:00,
2013-03-22 09:01:00,32.7,-3.9,29.65,WSW,248,0.0,0.0,20,0.00,,,0.00,VWS V14.01,2013-03-22 13:01:00,
2013-03-22 09:02:00,32.7,-3.9,29.65,WSW,248,0.0,0.0,20,0.00,,,0.00,VWS V14.01,2013-03-22 13:02:00,
2013-03-22 09:03:00,32.9,-3.8,29.65,WSW,248,0.0,0.0,20,0.00,,,0.00,VWS V14.01,2013-03-22 13:03:00,
2013-03-22 09:05:00,32.9,-3.8,29.65,WSW,248,0.0,0.0,20,0.00,,,0.00,VWS V14.01,2013-03-22 13:05:00,
2013-03-22 09:06:00,33.1,-3.6,29.65,WSW,248,0.0,0.0,20,0.00,,,0.12,VWS V14.01,2013-03-22 13:06:00,
2013-03-22 09:07:00,33.1,-3.6,29.65,WSW,248,0.0,0.0,20,0.00,,,0.00,VWS V14.01,2013-03-22 13:07:00,
2013-03-22 09:08:00,33.1,-3.6,29.65,WSW,248,0.0,0.0,20,0.00,,,0.00,VWS V14.01,2013-03-22 13:08:00,
2013-03-22 09:10:00,33.3,-3.5,29.65,WSW,248,0.0,0.0,20,0.00,,,0.00,VWS V14.01,2013-03-22 13:10:00,
2013-03-22 09:11:00,33.3,-3.5,29.65,WSW,248,0.0,0.0,20,0.00,,,0.00,VWS V14.01,2013-03-22 13:11:00,
2013-03-22 09:13:00,33.3,-3.5,29.65,WSW,248,0.0,0.0,20,0.00,,,0.00,VWS V14.01,2013-03-22 13:13:00,
2013-03-22 09:14:00,33.4,-3.3,29.65,WSW,248,0.0,0.0,20,0.00,,,0.00,VWS V14.01,2013-03-22 13:14:00,
2013-03-22 09:15:00,33.4,-3.3,29.65,WSW,248,0.0,0.0,20,0.00,,,0.00,VWS V14.01,2013-03-22 13:15:00,
2013-03-22 09:16:00,33.4,-3.3,29.65,WSW,248,0.0,0.0,20,0.00,,,0.00,VWS V14.01,2013-03-22 13:16:00,
2013-03-22 09:18:00,33.6,-3.2,29.65,WSW,248,0.0,0.0,20,0.00,,,0.00,VWS V14.01,2013-03-22 13:18:00,
2013-03-22 09:19:00,33.8,-3.0,29.65,WSW,248,0.0,0.0,20,0.00,,,0.00,VWS V14.01,2013-03-22 13:19:00,
2013-03-22 09:20:00,33.8,-3.0,29.65,WSW,248,0.0,0.0,20,0.00,,,0.00,VWS V14.01,2013-03-22 13:20:00,
2013-03-22 09:21:00,33.8,-3.0,29.65,WSW,248,0.0,0.0,20,0.00,,,0.00,VWS V14.01,2013-03-22 13:21:00,
2013-03-22 09:23:00,34.0,-2.9,29.65,WSW,248,0.0,0.0,20,0.00,,,0.00,VWS V14.01,2013-03-22 13:23:00,
2013-03-22 09:24:00,34.0,-2.9,29.65,WSW,248,0.0,0.0,20,0.00,,,0.00,VWS V14.01,2013-03-22 13:24:00,
2013-03-22 09:25:00,34.0,-2.9,29.65,WSW,248,0.0,0.0,20,0.00,,,0.00,VWS V14.01,2013-03-22 13:25:00,
2013-03-22 09:27:00,34.0,-2.9,29.65,WSW,248,0.0,0.0,20,0.00,,,0.00,VWS V14.01,2013-03-22 13:27:00,
2013-03-22 09:28:00,34.0,-2.9,29.65,WSW,248,0.0,0.0,20,0.00,,,0.00,VWS V14.01,2013-03-22 13:28:00,
2013-03-22 09:29:00,34.0,-2.9,29.65,WSW,248,0.0,0.0,20,0.00,,,0.00,VWS V14.01,2013-03-22 13:29:00,
2013-03-22 09:30:00,34.2,-2.7,29.65,WSW,248,0.0,0.0,20,0.00,,,0.00,VWS V14.01,2013-03-22 13:30:00,
2013-03-22 09:32:00,34.2,-2.7,29.65,WSW,248,0.0,0.0,20,0.00,,,0.00,VWS V14.01,2013-03-22 13:32:00,
2013-03-22 09:33:00,34.3,-2.6,29.65,WSW,248,0.0,0.0,20,0.00,,,0.00,VWS V14.01,2013-03-22 13:33:00,
2013-03-22 09:34:00,34.3,-2.6,29.65,WSW,248,0.0,0.0,20,0.00,,,0.00,VWS V14.01,2013-03-22 13:34:00,
2013-03-22 09:36:00,34.3,-2.6,29.65,WSW,248,0.0,0.0,20,0.00,,,0.00,VWS V14.01,2013-03-22 13:36:00,
2013-03-22 09:37:00,34.5,-2.4,29.65,WSW,248,0.0,0.0,20,0.00,,,0.00,VWS V14.01,2013-03-22 13:37:00,
2013-03-22 09:38:00,34.7,-2.3,29.65,WSW,248,0.0,0.0,20,0.00,,,0.00,VWS V14.01,2013-03-22 13:38:00,
2013-03-22 09:39:00,34.7,-2.3,29.65,WSW,248,0.0,0.0,20,0.00,,,0.00,VWS V14.01,2013-03-22 13:39:00,
2013-03-22 09:41:00,34.7,-2.3,29.65,WSW,248,0.0,0.0,20,0.00,,,0.00,VWS V14.01,2013-03-22 13:41:00,
2013-03-22 09:42:00,34.7,-2.3,29.65,WSW,248,0.0,0.0,20,0.00,,,0.00,VWS V14.01,2013-03-22 13:42:00,
2013-03-22 09:43:00,34.9,-2.1,29.65,WSW,248,0.0,0.0,20,0.00,,,0.00,VWS V14.01,2013-03-22 13:43:00,
2013-03-22 09:44:00,34.9,-2.1,29.65,WSW,248,0.0,0.0,20,0.00,,,0.00,VWS V14.01,2013-03-22 13:44:00,
2013-03-22 09:46:00,34.9,-2.1,29.65,WSW,248,0.0,0.0,20,0.00,,,0.00,VWS V14.01,2013-03-22 13:46:00,
2013-03-22 09:47:00,35.1,-2.0,29.65,WSW,248,0.0,0.0,20,0.00,,,0.00,VWS V14.01,2013-03-22 13:47:00,
2013-03-22 09:49:00,35.1,-2.0,29.65,WSW,248,0.0,0.0,20,0.00,,,0.00,VWS V14.01,2013-03-22 13:49:00,
2013-03-22 09:51:00,35.4,-1.6,29.65,WSW,248,0.0,0.0,20,0.00,,,0.00,VWS V14.01,2013-03-22 13:51:00,
2013-03-22 09:52:00,35.4,-1.6,29.65,WSW,248,0.0,0.0,20,0.00,,,0.00,VWS V14.01,2013-03-22 13:52:00,
2013-03-22 09:54:00,35.4,-1.6,29.65,WSW,248,0.0,0.0,20,0.00,,,0.00,VWS V14.01,2013-03-22 13:54:00,
2013-03-22 09:56:00,35.6,-2.6,29.65,WSW,248,0.0,0.0,19,0.00,,,0.00,VWS V14.01,2013-03-22 13:56:00,
2013-03-22 09:58:00,35.6,-2.6,29.65,WSW,248,0.0,0.0,19,0.00,,,0.00,VWS V14.01,2013-03-22 13:58:00,
2013-03-22 09:59:00,35.8,-2.4,29.65,WSW,248,0.0,0.0,19,0.00,,,0.00,VWS V14.01,2013-03-22 13:59:00,
2013-03-22 10:01:00,36.0,-2.3,29.65,WSW,248,0.0,0.0,19,0.00,,,0.00,VWS V14.01,2013-03-22 14:01:00,
2013-03-22 10:03:00,36.0,-2.3,29.65,WSW,248,0.0,0.0,19,0.00,,,0.00,VWS V14.01,2013-03-22 14:03:00,
2013-03-22 10:04:00,36.0,-2.3,29.65,WSW,248,0.0,0.0,19,0.00,,,0.00,VWS V14.01,2013-03-22 14:04:00,
2013-03-22 10:05:00,36.0,-2.3,29.65,WSW,248,0.0,0.0,19,0.00,,,0.00,VWS V14.01,2013-03-22 14:05:00,
2013-03-22 10:07:00,36.1,-2.1,29.65,WSW,248,0.0,0.0,19,0.00,,,0.00,VWS V14.01,2013-03-22 14:07:00,
2013-03-22 10:08:00,36.3,-2.0,29.65,WSW,248,0.0,0.0,19,0.00,,,0.00,VWS V14.01,2013-03-22 14:08:00,
2013-03-22 10:09:00,36.3,-2.0,29.65,WSW,248,0.0,0.0,19,0.00,,,0.00,VWS V14.01,2013-03-22 14:09:00,
2013-03-22 10:10:00,36.3,-2.0,29.65,WSW,248,0.0,0.0,19,0.00,,,0.00,VWS V14.01,2013-03-22 14:10:00,
2013-03-22 10:12:00,36.5,-1.8,29.65,WSW,248,0.0,0.0,19,0.00,,,0.00,VWS V14.01,2013-03-22 14:12:00,
2013-03-22 10:13:00,36.5,-1.8,29.65,WSW,248,0.0,0.0,19,0.00,,,0.00,VWS V14.01,2013-03-22 14:13:00,
2013-03-22 10:14:00,36.7,-1.7,29.65,WSW,248,0.0,0.0,19,0.00,,,0.00,VWS V14.01,2013-03-22 14:14:00,
2013-03-22 10:15:00,36.7,-1.7,29.65,WSW,248,0.0,0.0,19,0.00,,,0.00,VWS V14.01,2013-03-22 14:15:00,
2013-03-22 10:17:00,36.9,-1.5,29.65,WSW,248,0.0,0.0,19,0.00,,,0.00,VWS V14.01,2013-03-22 14:17:00,
2013-03-22 10:18:00,36.9,-1.5,29.65,WSW,248,0.0,0.0,19,0.00,,,0.00,VWS V14.01,2013-03-22 14:18:00,
2013-03-22 10:19:00,37.0,-1.4,29.65,WSW,248,0.0,0.0,19,0.00,,,0.00,VWS V14.01,2013-03-22 14:19:00,
2013-03-22 10:20:00,37.2,-1.2,29.65,WSW,248,0.0,0.0,19,0.00,,,0.00,VWS V14.01,2013-03-22 14:20:00,
2013-03-22 10:22:00,37.6,-0.9,29.65,WSW,248,0.0,0.0,19,0.00,,,0.00,VWS V14.01,2013-03-22 14:22:00,
2013-03-22 10:23:00,37.8,-0.8,29.65,WSW,248,0.0,0.0,19,0.00,,,0.00,VWS V14.01,2013-03-22 14:23:00,
2013-03-22 10:24:00,37.9,-0.6,29.65,WSW,248,0.0,0.0,19,0.00,,,0.00,VWS V14.01,2013-03-22 14:24:00,
2013-03-22 10:25:00,37.9,-0.6,29.65,WSW,248,0.0,0.0,19,0.00,,,0.00,VWS V14.01,2013-03-22 14:25:00,
2013-03-22 10:27:00,37.9,-0.6,29.65,WSW,248,0.0,0.0,19,0.00,,,0.00,VWS V14.01,2013-03-22 14:27:00,
2013-03-22 10:28:00,37.9,-0.6,29.65,WSW,248,0.0,0.0,19,0.00,,,0.00,VWS V14.01,2013-03-22 14:28:00,
2013-03-22 10:29:00,37.8,-0.8,29.65,WSW,248,0.0,0.0,19,0.00,,,0.00,VWS V14.01,2013-03-22 14:29:00,
2013-03-22 10:30:00,37.8,-0.8,29.65,WSW,248,0.0,0.0,19,0.00,,,0.00,VWS V14.01,2013-03-22 14:30:00,
2013-03-22 10:32:00,37.8,-0.8,29.65,WSW,248,0.0,0.0,19,0.00,,,0.00,VWS V14.01,2013-03-22 14:32:00,
2013-03-22 10:33:00,37.9,-0.6,29.65,WSW,248,0.0,0.0,19,0.00,,,0.00,VWS V14.01,2013-03-22 14:33:00,
2013-03-22 10:34:00,37.9,-0.6,29.65,WSW,248,0.0,0.0,19,0.00,,,0.00,VWS V14.01,2013-03-22 14:34:00,
2013-03-22 10:35:00,38.1,-0.5,29.65,WSW,248,0.0,0.0,19,0.00,,,0.00,VWS V14.01,2013-03-22 14:35:00,
2013-03-22 10:37:00,38.1,-0.5,29.65,WSW,248,0.0,0.0,19,0.00,,,0.00,VWS V14.01,2013-03-22 14:37:00,
2013-03-22 10:38:00,38.3,-0.3,29.65,WSW,248,0.0,0.0,19,0.00,,,0.00,VWS V14.01,2013-03-22 14:38:00,
2013-03-22 10:39:00,38.5,-0.2,29.68,WSW,248,0.0,0.0,19,0.00,,,0.00,VWS V14.01,2013-03-22 14:39:00,
2013-03-22 10:40:00,38.7,0.0,29.68,WSW,248,0.0,0.0,19,0.00,,,0.00,VWS V14.01,2013-03-22 14:40:00,
2013-03-22 10:42:00,38.7,0.0,29.68,WSW,248,0.0,0.0,19,0.00,,,0.00,VWS V14.01,2013-03-22 14:42:00,
2013-03-22 10:43:00,38.7,0.0,29.68,WSW,248,0.0,0.0,19,0.00,,,0.00,VWS V14.01,2013-03-22 14:43:00,
2013-03-22 10:44:00,38.8,0.1,29.68,WSW,248,0.0,0.0,19,0.00,,,0.00,VWS V14.01,2013-03-22 14:44:00,
2013-03-22 10:45:00,38.8,0.1,29.68,WSW,248,0.0,0.0,19,0.00,,,0.00,VWS V14.01,2013-03-22 14:45:00,
2013-03-22 10:47:00,39.2,-0.7,29.68,WSW,248,0.0,0.0,18,0.00,,,0.00,VWS V14.01,2013-03-22 14:47:00,
2013-03-22 10:48:00,39.2,-0.7,29.68,WSW,248,0.0,0.0,18,0.00,,,0.00,VWS V14.01,2013-03-22 14:48:00,
2013-03-22 10:49:00,39.4,-0.6,29.68,WSW,248,0.0,0.0,18,0.00,,,0.00,VWS V14.01,2013-03-22 14:49:00,
2013-03-22 10:50:00,39.6,-0.4,29.68,WSW,248,0.0,0.0,18,0.00,,,0.00,VWS V14.01,2013-03-22 14:50:00,
2013-03-22 10:53:00,39.7,-0.3,29.68,WSW,248,0.0,0.0,18,0.00,,,0.00,VWS V14.01,2013-03-22 14:53:00,
2013-03-22 10:54:00,39.7,-0.3,29.65,WSW,248,0.0,0.0,18,0.00,,,0.00,VWS V14.01,2013-03-22 14:54:00,
2013-03-22 10:56:00,39.7,-0.3,29.65,WSW,248,0.0,0.0,18,0.00,,,0.00,VWS V14.01,2013-03-22 14:56:00,
2013-03-22 10:58:00,39.9,-0.1,29.65,WSW,248,0.0,0.0,18,0.00,,,0.00,VWS V14.01,2013-03-22 14:58:00,
2013-03-22 10:59:00,39.9,-0.1,29.65,WSW,248,0.0,0.0,18,0.00,,,0.00,VWS V14.01,2013-03-22 14:59:00,
2013-03-22 11:01:00,39.9,-0.1,29.65,WSW,248,0.0,0.0,18,0.00,,,0.00,VWS V14.01,2013-03-22 15:01:00,
2013-03-22 11:03:00,39.9,-0.1,29.65,WSW,248,0.0,0.0,18,0.00,,,0.00,VWS V14.01,2013-03-22 15:03:00,
2013-03-22 11:04:00,39.9,-0.1,29.65,WSW,248,0.0,0.0,18,0.00,,,0.00,VWS V14.01,2013-03-22 15:04:00,
2013-03-22 11:06:00,39.9,-0.1,29.65,WSW,248,0.0,0.0,18,0.00,,,0.00,VWS V14.01,2013-03-22 15:06:00,
2013-03-22 11:08:00,39.9,-0.1,29.65,WSW,248,0.0,0.0,18,0.00,,,0.00,VWS V14.01,2013-03-22 15:08:00,
2013-03-22 11:09:00,39.9,-0.1,29.65,WSW,248,0.0,0.0,18,0.00,,,0.00,VWS V14.01,2013-03-22 15:09:00,
2013-03-22 11:14:00,39.9,-0.1,29.65,WSW,248,0.0,0.0,18,0.00,,,0.00,VWS V14.01,2013-03-22 15:14:00,
2013-03-22 11:15:00,39.9,-0.1,29.65,WSW,248,0.0,0.0,18,0.00,,,0.00,VWS V14.01,2013-03-22 15:15:00,
2013-03-22 11:19:00,39.9,-0.1,29.65,WSW,248,0.0,0.0,18,0.00,,,0.00,VWS V14.01,2013-03-22 15:19:00,
2013-03-22 11:20:00,39.9,-0.1,29.65,WSW,248,0.0,0.0,18,0.00,,,0.00,VWS V14.01,2013-03-22 15:20:00,
2013-03-22 11:25:00,39.9,-0.1,29.65,WSW,248,0.0,0.0,18,0.00,,,0.00,VWS V14.01,2013-03-22 15:25:00,
2013-03-22 11:36:00,39.9,-0.1,29.65,WSW,248,0.0,0.0,18,0.00,,,0.00,VWS V14.01,2013-03-22 15:36:00,
2013-03-22 11:41:00,39.9,-0.1,29.65,WSW,248,0.0,0.0,18,0.00,,,0.00,VWS V14.01,2013-03-22 15:41:00,
2013-03-22 11:44:00,39.9,-0.1,29.65,WSW,248,0.0,0.0,18,0.00,,,0.00,VWS V14.01,2013-03-22 15:44:00,
2013-03-22 11:54:00,39.9,-0.1,29.65,WSW,248,0.0,0.0,18,0.00,,,0.00,VWS V14.01,2013-03-22 15:54:00,
2013-03-22 11:55:00,39.9,-0.1,29.65,WSW,248,0.0,0.0,18,0.00,,,0.00,VWS V14.01,2013-03-22 15:55:00,
2013-03-22 11:59:00,39.9,-0.1,29.65,WSW,248,0.0,0.0,18,0.00,,,0.00,VWS V14.01,2013-03-22 15:59:00,
2013-03-22 12:00:00,39.9,-0.1,29.65,WSW,248,0.0,0.0,18,0.00,,,0.00,VWS V14.01,2013-03-22 16:00:00,
2013-03-22 12:04:00,39.9,-0.1,29.65,WSW,248,0.0,0.0,18,0.00,,,0.00,VWS V14.01,2013-03-22 16:04:00,
2013-03-22 12:05:00,39.9,-0.1,29.65,WSW,248,0.0,0.0,18,0.00,,,0.00,VWS V14.01,2013-03-22 16:05:00,
2013-03-22 12:10:00,39.9,-0.1,29.65,WSW,248,0.0,0.0,18,0.00,,,0.00,VWS V14.01,2013-03-22 16:10:00,
2013-03-22 12:19:00,39.9,-0.1,29.65,WSW,248,0.0,0.0,18,0.00,,,0.00,VWS V14.01,2013-03-22 16:19:00,
2013-03-22 12:21:00,39.9,-0.1,29.65,WSW,248,0.0,0.0,18,0.00,,,0.00,VWS V14.01,2013-03-22 16:21:00,
2013-03-22 12:24:00,39.9,-0.1,29.65,WSW,248,0.0,0.0,18,0.00,,,0.00,VWS V14.01,2013-03-22 16:24:00,
2013-03-22 12:29:00,39.9,-0.1,29.65,WSW,248,0.0,0.0,18,0.00,,,0.00,VWS V14.01,2013-03-22 16:29:00,
2013-03-22 12:36:00,39.9,-0.1,29.65,WSW,248,0.0,0.0,18,0.00,,,0.00,VWS V14.01,2013-03-22 16:36:00,
2013-03-22 12:39:00,39.9,-0.1,29.65,WSW,248,0.0,0.0,18,0.00,,,0.00,VWS V14.01,2013-03-22 16:39:00,
2013-03-22 12:44:00,39.9,-0.1,29.65,WSW,248,0.0,0.0,18,0.00,,,0.00,VWS V14.01,2013-03-22 16:44:00,
2013-03-22 12:54:00,39.9,-0.1,29.65,WSW,248,0.0,0.0,18,0.00,,,0.00,VWS V14.01,2013-03-22 16:54:00,
2013-03-22 12:59:00,39.9,-0.1,29.65,WSW,248,0.0,0.0,18,0.00,,,0.00,VWS V14.01,2013-03-22 16:59:00,
2013-03-22 13:05:00,39.9,-0.1,29.65,WSW,248,0.0,0.0,18,0.00,,,0.00,VWS V14.01,2013-03-22 17:05:00,
2013-03-22 13:15:00,39.9,-0.1,29.65,WSW,248,0.0,0.0,18,0.00,,,0.00,VWS V14.01,2013-03-22 17:15:00,
2013-03-22 13:24:00,39.9,-0.1,29.65,WSW,248,0.0,0.0,18,0.00,,,0.00,VWS V14.01,2013-03-22 17:24:00,
2013-03-22 13:29:00,39.9,-0.1,29.65,WSW,248,0.0,0.0,18,0.00,,,0.00,VWS V14.01,2013-03-22 17:29:00,
2013-03-22 13:34:00,39.9,-0.1,29.65,WSW,248,0.0,0.0,18,0.00,,,0.00,VWS V14.01,2013-03-22 17:34:00,
2013-03-22 13:44:00,39.9,-0.1,29.65,WSW,248,0.0,0.0,18,0.00,,,0.00,VWS V14.01,2013-03-22 17:44:00,
2013-03-22 14:00:00,39.9,-0.1,29.65,WSW,248,0.0,0.0,18,0.00,,,0.00,VWS V14.01,2013-03-22 18:00:00,
2013-03-22 14:04:00,39.9,-0.1,29.65,WSW,248,0.0,0.0,18,0.00,,,0.00,VWS V14.01,2013-03-22 18:04:00,
2013-03-22 14:17:00,39.9,-0.1,29.65,WSW,248,0.0,0.0,18,0.00,,,0.00,VWS V14.01,2013-03-22 18:17:00,
2013-03-22 14:20:00,39.9,-0.1,29.65,WSW,248,0.0,0.0,18,0.00,,,0.00,VWS V14.01,2013-03-22 18:20:00,
2013-03-22 14:29:00,39.9,-0.1,29.65,WSW,248,0.0,0.0,18,0.00,,,0.00,VWS V14.01,2013-03-22 18:29:00,
2013-03-22 14:40:00,39.9,-0.1,29.65,WSW,248,0.0,0.0,18,0.00,,,0.00,VWS V14.01,2013-03-22 18:40:00,
2013-03-22 14:44:00,39.9,-0.1,29.65,WSW,248,0.0,0.0,18,0.00,,,0.00,VWS V14.01,2013-03-22 18:44:00,
2013-03-22 14:45:00,39.9,-0.1,29.65,WSW,248,0.0,0.0,18,0.00,,,0.00,VWS V14.01,2013-03-22 18:45:00,
2013-03-22 14:54:00,39.9,-0.1,29.65,WSW,248,0.0,0.0,18,0.00,,,0.00,VWS V14.01,2013-03-22 18:54:00,
2013-03-22 14:55:00,39.9,-0.1,29.65,WSW,248,0.0,0.0,18,0.00,,,0.00,VWS V14.01,2013-03-22 18:55:00,
2013-03-22 15:00:00,39.9,-0.1,29.65,WSW,248,0.0,0.0,18,0.00,,,0.00,VWS V14.01,2013-03-22 19:00:00,
2013-03-22 15:09:00,39.9,-0.1,29.65,WSW,248,0.0,0.0,18,0.00,,,0.00,VWS V14.01,2013-03-22 19:09:00,
2013-03-22 15:14:00,39.9,-0.1,29.65,WSW,248,0.0,0.0,18,0.00,,,0.00,VWS V14.01,2013-03-22 19:14:00,
2013-03-22 15:20:00,39.9,-0.1,29.65,WSW,248,0.0,0.0,18,0.00,,,0.00,VWS V14.01,2013-03-22 19:20:00,
2013-03-22 15:24:00,39.9,-0.1,29.65,WSW,248,0.0,0.0,18,0.00,,,0.00,VWS V14.01,2013-03-22 19:24:00,
2013-03-22 15:25:00,39.9,-0.1,29.65,WSW,248,0.0,0.0,18,0.00,,,0.00,VWS V14.01,2013-03-22 19:25:00,
2013-03-22 15:26:00,39.9,-0.1,29.65,WSW,248,0.0,0.0,18,0.00,,,0.00,VWS V14.01,2013-03-22 19:26:00,
2013-03-22 15:40:00,39.9,-0.1,29.65,WSW,248,0.0,0.0,18,0.00,,,0.00,VWS V14.01,2013-03-22 19:40:00,
2013-03-22 15:55:00,39.9,-0.1,29.65,WSW,248,0.0,0.0,18,0.00,,,0.00,VWS V14.01,2013-03-22 19:55:00,
2013-03-22 16:00:00,39.9,-0.1,29.65,WSW,248,0.0,0.0,18,0.00,,,0.00,VWS V14.01,2013-03-22 20:00:00,
2013-03-22 16:15:00,39.9,-0.1,29.65,WSW,248,0.0,0.0,18,0.00,,,0.00,VWS V14.01,2013-03-22 20:15:00,
2013-03-22 16:25:00,39.9,-0.1,29.65,WSW,248,0.0,0.0,18,0.00,,,0.00,VWS V14.01,2013-03-22 20:25:00,
2013-03-22 16:34:00,39.9,-0.1,29.65,WSW,248,0.0,0.0,18,0.00,,,0.00,VWS V14.01,2013-03-22 20:34:00,
2013-03-22 16:39:00,39.9,-0.1,29.65,WSW,248,0.0,0.0,18,0.00,,,0.00,VWS V14.01,2013-03-22 20:39:00,
2013-03-22 16:45:00,39.9,-0.1,29.65,WSW,248,0.0,0.0,18,0.00,,,0.00,VWS V14.01,2013-03-22 20:45:00,
2013-03-22 16:51:00,39.9,-0.1,29.65,WSW,248,0.0,0.0,18,0.00,,,0.00,VWS V14.01,2013-03-22 20:51:00,
2013-03-22 17:00:00,39.9,-0.1,29.65,WSW,248,0.0,0.0,18,0.00,,,0.00,VWS V14.01,2013-03-22 21:00:00,
2013-03-22 17:05:00,39.9,-0.1,29.65,WSW,248,0.0,0.0,18,0.00,,,0.00,VWS V14.01,2013-03-22 21:05:00,
2013-03-22 17:10:00,39.9,-0.1,29.65,WSW,248,0.0,0.0,18,0.00,,,0.00,VWS V14.01,2013-03-22 21:10:00,
2013-03-22 17:15:00,39.9,-0.1,29.65,WSW,248,0.0,0.0,18,0.00,,,0.00,VWS V14.01,2013-03-22 21:15:00,
2013-03-22 17:25:00,39.9,-0.1,29.65,WSW,248,0.0,0.0,18,0.00,,,0.00,VWS V14.01,2013-03-22 21:25:00,
2013-03-22 17:28:00,39.9,-0.1,29.65,WSW,248,0.0,0.0,18,0.00,,,0.00,VWS V14.01,2013-03-22 21:28:00,
2013-03-22 17:34:00,39.9,-0.1,29.65,WSW,248,0.0,0.0,18,0.00,,,0.00,VWS V14.01,2013-03-22 21:34:00,
2013-03-22 17:38:00,39.9,-0.1,29.65,WSW,248,0.0,0.0,18,0.00,,,0.00,VWS V14.01,2013-03-22 21:38:00,
2013-03-22 17:40:00,39.9,-0.1,29.65,WSW,248,0.0,0.0,18,0.00,,,0.00,VWS V14.01,2013-03-22 21:40:00,
2013-03-22 17:41:00,39.9,-0.1,29.65,WSW,248,0.0,0.0,18,0.00,,,0.00,VWS V14.01,2013-03-22 21:41:00,
2013-03-22 17:45:00,39.9,-0.1,29.65,WSW,248,0.0,0.0,18,0.00,,,0.00,VWS V14.01,2013-03-22 21:45:00,
2013-03-22 18:00:00,39.9,-0.1,29.65,WSW,248,0.0,0.0,18,0.00,,,0.00,VWS V14.01,2013-03-22 22:00:00,
2013-03-22 18:05:00,39.9,-0.1,29.65,WSW,248,0.0,0.0,18,0.00,,,0.00,VWS V14.01,2013-03-22 22:05:00,
2013-03-22 18:25:00,39.9,-0.1,29.65,WSW,248,0.0,0.0,18,0.00,,,0.00,VWS V14.01,2013-03-22 22:25:00,
2013-03-22 18:30:00,39.9,-0.1,29.65,WSW,248,0.0,0.0,18,0.00,,,0.00,VWS V14.01,2013-03-22 22:30:00,
2013-03-22 18:35:00,39.9,-0.1,29.65,WSW,248,0.0,0.0,18,0.00,,,0.00,VWS V14.01,2013-03-22 22:35:00,
2013-03-22 18:36:00,39.9,-0.1,29.65,WSW,248,0.0,0.0,18,0.00,,,0.00,VWS V14.01,2013-03-22 22:36:00,
2013-03-22 18:49:00,39.9,-0.1,29.65,WSW,248,0.0,0.0,18,0.00,,,0.00,VWS V14.01,2013-03-22 22:49:00,
2013-03-22 18:54:00,39.9,-0.1,29.65,WSW,248,0.0,0.0,18,0.00,,,0.00,VWS V14.01,2013-03-22 22:54:00,
2013-03-22 19:03:00,39.9,-0.1,29.65,WSW,248,0.0,0.0,18,0.00,,,0.00,VWS V14.01,2013-03-22 23:03:00,
2013-03-22 19:10:00,39.9,-0.1,29.65,WSW,248,0.0,0.0,18,0.00,,,0.00,VWS V14.01,2013-03-22 23:10:00,
2013-03-22 19:14:00,39.9,-0.1,29.65,WSW,248,0.0,0.0,18,0.00,,,0.00,VWS V14.01,2013-03-22 23:14:00,
2013-03-22 19:15:00,39.9,-0.1,29.65,WSW,248,0.0,0.0,18,0.00,,,0.00,VWS V14.01,2013-03-22 23:15:00,
2013-03-22 19:19:00,39.9,-0.1,29.65,WSW,248,0.0,0.0,18,0.00,,,0.00,VWS V14.01,2013-03-22 23:19:00,
2013-03-22 19:29:00,39.9,-0.1,29.65,WSW,248,0.0,0.0,18,0.00,,,0.00,VWS V14.01,2013-03-22 23:29:00,
2013-03-22 19:39:00,39.9,-0.1,29.65,WSW,248,0.0,0.0,18,0.00,,,0.00,VWS V14.01,2013-03-22 23:39:00,
2013-03-22 19:44:00,39.9,-0.1,29.65,WSW,248,0.0,0.0,18,0.00,,,0.00,VWS V14.01,2013-03-22 23:44:00,
2013-03-22 19:49:00,39.9,-0.1,29.65,WSW,248,0.0,0.0,18,0.00,,,0.00,VWS V14.01,2013-03-22 23:49:00,
2013-03-22 20:00:00,39.9,-0.1,29.65,WSW,248,0.0,0.0,18,0.00,,,0.00,VWS V14.01,2013-03-23 00:00:00,
2013-03-22 20:04:00,39.9,-0.1,29.65,WSW,248,0.0,0.0,18,0.00,,,0.00,VWS V14.01,2013-03-23 00:04:00,
2013-03-22 20:15:00,39.9,-0.1,29.65,WSW,248,0.0,0.0,18,0.00,,,0.00,VWS V14.01,2013-03-23 00:15:00,
2013-03-22 20:19:00,39.9,-0.1,29.65,WSW,248,0.0,0.0,18,0.00,,,0.00,VWS V14.01,2013-03-23 00:19:00,
2013-03-22 20:20:00,39.9,-0.1,29.65,WSW,248,0.0,0.0,18,0.00,,,0.00,VWS V14.01,2013-03-23 00:20:00,
2013-03-22 20:24:00,39.9,-0.1,29.65,WSW,248,0.0,0.0,18,0.00,,,0.00,VWS V14.01,2013-03-23 00:24:00,
2013-03-22 20:29:00,39.9,-0.1,29.65,WSW,248,0.0,0.0,18,0.00,,,0.00,VWS V14.01,2013-03-23 00:29:00,
2013-03-22 20:44:00,39.9,-0.1,29.65,WSW,248,0.0,0.0,18,0.00,,,0.00,VWS V14.01,2013-03-23 00:44:00,
2013-03-22 20:54:00,39.9,-0.1,29.65,WSW,248,0.0,0.0,18,0.00,,,0.00,VWS V14.01,2013-03-23 00:54:00,
2013-03-22 20:56:00,39.9,-0.1,29.65,WSW,248,0.0,0.0,18,0.00,,,0.00,VWS V14.01,2013-03-23 00:56:00,
2013-03-22 21:10:00,39.9,-0.1,29.65,WSW,248,0.0,0.0,18,0.00,,,0.00,VWS V14.01,2013-03-23 01:10:00,
2013-03-22 21:15:00,39.9,-0.1,29.65,WSW,248,0.0,0.0,18,0.00,,,0.00,VWS V14.01,2013-03-23 01:15:00,
2013-03-22 21:25:00,39.9,-0.1,29.65,WSW,248,0.0,0.0,18,0.00,,,0.00,VWS V14.01,2013-03-23 01:25:00,
2013-03-22 21:44:00,39.9,-0.1,29.65,WSW,248,0.0,0.0,18,0.00,,,0.00,VWS V14.01,2013-03-23 01:44:00,
2013-03-22 21:50:00,39.9,-0.1,29.65,WSW,248,0.0,0.0,18,0.00,,,0.00,VWS V14.01,2013-03-23 01:50:00,
2013-03-22 21:54:00,39.9,-0.1,29.65,WSW,248,0.0,0.0,18,0.00,,,0.00,VWS V14.01,2013-03-23 01:54:00,
2013-03-22 21:55:00,39.9,-0.1,29.65,WSW,248,0.0,0.0,18,0.00,,,0.00,VWS V14.01,2013-03-23 01:55:00,
2013-03-22 22:00:00,39.9,-0.1,29.65,WSW,248,0.0,0.0,18,0.00,,,0.00,VWS V14.01,2013-03-23 02:00:00,
2013-03-22 22:05:00,39.9,-0.1,29.65,WSW,248,0.0,0.0,18,0.00,,,0.00,VWS V14.01,2013-03-23 02:05:00,
2013-03-22 22:15:00,39.9,-0.1,29.65,WSW,248,0.0,0.0,18,0.00,,,0.00,VWS V14.01,2013-03-23 02:15:00,
2013-03-22 22:19:00,39.9,-0.1,29.65,WSW,248,0.0,0.0,18,0.00,,,0.00,VWS V14.01,2013-03-23 02:19:00,
2013-03-22 22:20:00,39.9,-0.1,29.65,WSW,248,0.0,0.0,18,0.00,,,0.00,VWS V14.01,2013-03-23 02:20:00,
2013-03-22 22:25:00,39.9,-0.1,29.65,WSW,248,0.0,0.0,18,0.00,,,0.00,VWS V14.01,2013-03-23 02:25:00,
2013-03-22 22:34:00,39.9,-0.1,29.65,WSW,248,0.0,0.0,18,0.00,,,0.00,VWS V14.01,2013-03-23 02:34:00,
2013-03-22 22:39:00,39.9,-0.1,29.65,WSW,248,0.0,0.0,18,0.00,,,0.00,VWS V14.01,2013-03-23 02:39:00,
2013-03-22 22:45:00,39.9,-0.1,29.65,WSW,248,0.0,0.0,18,0.00,,,0.00,VWS V14.01,2013-03-23 02:45:00,
2013-03-22 22:54:00,39.9,-0.1,29.65,WSW,248,0.0,0.0,18,0.00,,,0.00,VWS V14.01,2013-03-23 02:54:00,
2013-03-22 22:59:00,39.9,-0.1,29.65,WSW,248,0.0,0.0,18,0.00,,,0.00,VWS V14.01,2013-03-23 02:59:00,
2013-03-22 23:01:00,39.9,-0.1,29.65,WSW,248,0.0,0.0,18,0.00,,,0.00,VWS V14.01,2013-03-23 03:01:00,
2013-03-22 23:06:00,39.9,-0.1,29.65,WSW,248,0.0,0.0,18,0.00,,,0.00,VWS V14.01,2013-03-23 03:06:00,
2013-03-22 23:20:00,39.9,-0.1,29.65,WSW,248,0.0,0.0,18,0.00,,,0.00,VWS V14.01,2013-03-23 03:20:00,
2013-03-22 23:23:00,39.9,-0.1,29.65,WSW,248,0.0,0.0,18,0.00,,,0.00,VWS V14.01,2013-03-23 03:23:00,
2013-03-22 23:38:00,39.9,-0.1,29.65,WSW,248,0.0,0.0,18,0.00,,,0.00,VWS V14.01,2013-03-23 03:38:00,
2013-03-22 23:39:00,39.9,-0.1,29.65,WSW,248,0.0,0.0,18,0.00,,,0.00,VWS V14.01,2013-03-23 03:39:00,
2013-03-22 23:55:00,39.9,-0.1,29.65,WSW,248,0.0,0.0,18,0.00,,,0.00,VWS V14.01,2013-03-23 03:55:00,
2013-03-22 23:59:00,39.9,-0.1,29.65,WSW,248,0.0,0.0,18,0.00,,,0.00,VWS V14.01,2013-03-23 03:59:00,